sensor_id;sensor_type;location;lat;lon;timestamp;P1;durP1;ratioP1;P2;durP2;ratioP2
6523;SDS011;3295;38.928;-77.052;2023-06-24T00:00:05;7.10;;;3.00;;
6523;SDS011;3295;38.928;-77.052;2023-06-24T00:02:35;5.33;;;2.83;;
6523;SDS011;3295;38.928;-77.052;2023-06-24T00:05:03;5.50;;;2.97;;
6523;SDS011;3295;38.928;-77.052;2023-06-24T00:07:31;6.27;;;3.37;;
6523;SDS011;3295;38.928;-77.052;2023-06-24T00:10:01;8.83;;;2.90;;
6523;SDS011;3295;38.928;-77.052;2023-06-24T00:12:29;5.57;;;3.23;;
6523;SDS011;3295;38.928;-77.052;2023-06-24T00:14:58;4.63;;;2.67;;
6523;SDS011;3295;38.928;-77.052;2023-06-24T00:17:27;4.97;;;2.97;;
6523;SDS011;3295;38.928;-77.052;2023-06-24T00:19:54;4.40;;;2.83;;
6523;SDS011;3295;38.928;-77.052;2023-06-24T00:22:21;7.07;;;3.43;;
6523;SDS011;3295;38.928;-77.052;2023-06-24T00:24:49;5.00;;;3.27;;
6523;SDS011;3295;38.928;-77.052;2023-06-24T00:27:16;5.33;;;3.10;;
6523;SDS011;3295;38.928;-77.052;2023-06-24T00:29:43;4.53;;;3.00;;
6523;SDS011;3295;38.928;-77.052;2023-06-24T00:32:11;5.57;;;3.37;;
6523;SDS011;3295;38.928;-77.052;2023-06-24T00:34:39;4.60;;;2.87;;
6523;SDS011;3295;38.928;-77.052;2023-06-24T00:37:08;5.67;;;2.90;;
6523;SDS011;3295;38.928;-77.052;2023-06-24T00:39:36;5.50;;;3.00;;
6523;SDS011;3295;38.928;-77.052;2023-06-24T00:42:03;5.63;;;3.33;;
6523;SDS011;3295;38.928;-77.052;2023-06-24T00:44:31;8.77;;;3.70;;
6523;SDS011;3295;38.928;-77.052;2023-06-24T00:46:58;4.90;;;3.13;;
6523;SDS011;3295;38.928;-77.052;2023-06-24T00:49:25;7.63;;;3.47;;
6523;SDS011;3295;38.928;-77.052;2023-06-24T00:51:54;7.53;;;3.33;;
6523;SDS011;3295;38.928;-77.052;2023-06-24T00:54:22;7.03;;;3.50;;
6523;SDS011;3295;38.928;-77.052;2023-06-24T00:56:56;8.50;;;3.20;;
6523;SDS011;3295;38.928;-77.052;2023-06-24T00:59:27;5.17;;;3.00;;
6523;SDS011;3295;38.928;-77.052;2023-06-24T01:01:57;7.23;;;2.90;;
6523;SDS011;3295;38.928;-77.052;2023-06-24T01:04:27;4.83;;;2.97;;
6523;SDS011;3295;38.928;-77.052;2023-06-24T01:06:56;7.23;;;3.63;;
6523;SDS011;3295;38.928;-77.052;2023-06-24T01:09:23;5.80;;;2.90;;
6523;SDS011;3295;38.928;-77.052;2023-06-24T01:11:51;7.37;;;3.20;;
6523;SDS011;3295;38.928;-77.052;2023-06-24T01:14:18;6.43;;;3.30;;
6523;SDS011;3295;38.928;-77.052;2023-06-24T01:16:50;5.07;;;2.67;;
6523;SDS011;3295;38.928;-77.052;2023-06-24T01:19:27;6.33;;;3.43;;
6523;SDS011;3295;38.928;-77.052;2023-06-24T01:22:03;6.33;;;3.30;;
6523;SDS011;3295;38.928;-77.052;2023-06-24T01:24:41;4.70;;;2.80;;
6523;SDS011;3295;38.928;-77.052;2023-06-24T01:27:26;4.60;;;2.80;;
6523;SDS011;3295;38.928;-77.052;2023-06-24T01:32:42;3.87;;;2.73;;
6523;SDS011;3295;38.928;-77.052;2023-06-24T01:35:11;5.57;;;3.10;;
6523;SDS011;3295;38.928;-77.052;2023-06-24T01:37:40;5.53;;;2.90;;
6523;SDS011;3295;38.928;-77.052;2023-06-24T01:40:09;5.80;;;2.97;;
6523;SDS011;3295;38.928;-77.052;2023-06-24T01:42:38;5.27;;;3.00;;
6523;SDS011;3295;38.928;-77.052;2023-06-24T01:45:06;6.87;;;3.00;;
6523;SDS011;3295;38.928;-77.052;2023-06-24T01:47:34;6.57;;;2.90;;
6523;SDS011;3295;38.928;-77.052;2023-06-24T01:50:04;5.00;;;3.00;;
6523;SDS011;3295;38.928;-77.052;2023-06-24T01:52:33;6.57;;;3.30;;
6523;SDS011;3295;38.928;-77.052;2023-06-24T01:55:02;5.97;;;3.07;;
6523;SDS011;3295;38.928;-77.052;2023-06-24T01:57:31;6.00;;;3.30;;
6523;SDS011;3295;38.928;-77.052;2023-06-24T01:59:59;5.73;;;2.93;;
6523;SDS011;3295;38.928;-77.052;2023-06-24T02:02:31;4.83;;;2.97;;
6523;SDS011;3295;38.928;-77.052;2023-06-24T02:04:59;5.47;;;2.80;;
6523;SDS011;3295;38.928;-77.052;2023-06-24T02:07:29;5.43;;;3.03;;
6523;SDS011;3295;38.928;-77.052;2023-06-24T02:09:57;4.13;;;2.77;;
6523;SDS011;3295;38.928;-77.052;2023-06-24T02:12:24;5.97;;;3.00;;
6523;SDS011;3295;38.928;-77.052;2023-06-24T02:14:52;7.20;;;2.90;;
6523;SDS011;3295;38.928;-77.052;2023-06-24T02:17:21;5.40;;;3.00;;
6523;SDS011;3295;38.928;-77.052;2023-06-24T02:19:48;5.77;;;3.10;;
6523;SDS011;3295;38.928;-77.052;2023-06-24T02:22:17;5.73;;;2.80;;
6523;SDS011;3295;38.928;-77.052;2023-06-24T02:24:45;4.20;;;2.90;;
6523;SDS011;3295;38.928;-77.052;2023-06-24T02:27:14;4.13;;;2.67;;
6523;SDS011;3295;38.928;-77.052;2023-06-24T02:29:42;5.27;;;2.90;;
6523;SDS011;3295;38.928;-77.052;2023-06-24T02:32:09;5.47;;;3.50;;
6523;SDS011;3295;38.928;-77.052;2023-06-24T02:34:37;5.93;;;3.20;;
6523;SDS011;3295;38.928;-77.052;2023-06-24T02:37:04;6.30;;;3.20;;
6523;SDS011;3295;38.928;-77.052;2023-06-24T02:39:31;5.97;;;2.97;;
6523;SDS011;3295;38.928;-77.052;2023-06-24T02:42:00;5.37;;;2.90;;
6523;SDS011;3295;38.928;-77.052;2023-06-24T02:44:27;6.80;;;3.40;;
6523;SDS011;3295;38.928;-77.052;2023-06-24T02:46:55;5.03;;;3.17;;
6523;SDS011;3295;38.928;-77.052;2023-06-24T02:49:22;6.00;;;2.77;;
6523;SDS011;3295;38.928;-77.052;2023-06-24T02:51:50;5.50;;;3.17;;
6523;SDS011;3295;38.928;-77.052;2023-06-24T02:54:17;6.63;;;3.43;;
6523;SDS011;3295;38.928;-77.052;2023-06-24T02:56:45;10.33;;;3.90;;
6523;SDS011;3295;38.928;-77.052;2023-06-24T02:59:15;5.50;;;3.10;;
6523;SDS011;3295;38.928;-77.052;2023-06-24T03:01:42;5.13;;;2.83;;
6523;SDS011;3295;38.928;-77.052;2023-06-24T03:04:10;6.17;;;3.50;;
6523;SDS011;3295;38.928;-77.052;2023-06-24T03:06:38;8.73;;;3.83;;
6523;SDS011;3295;38.928;-77.052;2023-06-24T03:09:06;6.20;;;3.73;;
6523;SDS011;3295;38.928;-77.052;2023-06-24T03:11:40;11.90;;;4.50;;
6523;SDS011;3295;38.928;-77.052;2023-06-24T03:14:07;8.03;;;4.27;;
6523;SDS011;3295;38.928;-77.052;2023-06-24T03:16:36;7.30;;;3.90;;
6523;SDS011;3295;38.928;-77.052;2023-06-24T03:19:04;8.63;;;4.47;;
6523;SDS011;3295;38.928;-77.052;2023-06-24T03:21:31;12.70;;;4.50;;
6523;SDS011;3295;38.928;-77.052;2023-06-24T03:23:58;7.23;;;4.10;;
6523;SDS011;3295;38.928;-77.052;2023-06-24T03:26:31;9.90;;;3.53;;
6523;SDS011;3295;38.928;-77.052;2023-06-24T03:28:58;7.40;;;4.07;;
6523;SDS011;3295;38.928;-77.052;2023-06-24T03:31:26;7.07;;;3.80;;
6523;SDS011;3295;38.928;-77.052;2023-06-24T03:33:55;9.27;;;4.33;;
6523;SDS011;3295;38.928;-77.052;2023-06-24T03:36:22;7.83;;;4.20;;
6523;SDS011;3295;38.928;-77.052;2023-06-24T03:38:50;11.50;;;5.17;;
6523;SDS011;3295;38.928;-77.052;2023-06-24T03:41:18;16.40;;;5.60;;
6523;SDS011;3295;38.928;-77.052;2023-06-24T03:43:46;10.67;;;4.80;;
6523;SDS011;3295;38.928;-77.052;2023-06-24T03:46:13;13.03;;;5.00;;
6523;SDS011;3295;38.928;-77.052;2023-06-24T03:48:40;10.17;;;5.10;;
6523;SDS011;3295;38.928;-77.052;2023-06-24T03:51:09;11.53;;;4.90;;
6523;SDS011;3295;38.928;-77.052;2023-06-24T03:53:36;11.37;;;5.20;;
6523;SDS011;3295;38.928;-77.052;2023-06-24T03:56:04;8.27;;;4.50;;
6523;SDS011;3295;38.928;-77.052;2023-06-24T03:58:31;7.27;;;4.10;;
6523;SDS011;3295;38.928;-77.052;2023-06-24T04:00:59;9.00;;;4.60;;
6523;SDS011;3295;38.928;-77.052;2023-06-24T04:03:26;7.47;;;4.10;;
6523;SDS011;3295;38.928;-77.052;2023-06-24T04:05:54;7.50;;;4.13;;
6523;SDS011;3295;38.928;-77.052;2023-06-24T04:08:23;7.67;;;4.20;;
6523;SDS011;3295;38.928;-77.052;2023-06-24T04:10:54;6.40;;;4.00;;
6523;SDS011;3295;38.928;-77.052;2023-06-24T04:13:21;8.03;;;4.10;;
6523;SDS011;3295;38.928;-77.052;2023-06-24T04:15:49;7.73;;;4.10;;
6523;SDS011;3295;38.928;-77.052;2023-06-24T04:18:16;7.27;;;4.00;;
6523;SDS011;3295;38.928;-77.052;2023-06-24T04:20:43;9.80;;;3.90;;
6523;SDS011;3295;38.928;-77.052;2023-06-24T04:23:11;7.83;;;3.97;;
6523;SDS011;3295;38.928;-77.052;2023-06-24T04:25:41;6.10;;;3.73;;
6523;SDS011;3295;38.928;-77.052;2023-06-24T04:28:08;6.27;;;4.07;;
6523;SDS011;3295;38.928;-77.052;2023-06-24T04:30:35;9.73;;;4.47;;
6523;SDS011;3295;38.928;-77.052;2023-06-24T04:33:04;9.13;;;4.23;;
6523;SDS011;3295;38.928;-77.052;2023-06-24T04:35:31;7.83;;;4.13;;
6523;SDS011;3295;38.928;-77.052;2023-06-24T04:37:58;7.30;;;3.87;;
6523;SDS011;3295;38.928;-77.052;2023-06-24T04:40:26;7.57;;;3.67;;
6523;SDS011;3295;38.928;-77.052;2023-06-24T04:42:54;7.27;;;3.67;;
6523;SDS011;3295;38.928;-77.052;2023-06-24T04:45:22;7.27;;;4.07;;
6523;SDS011;3295;38.928;-77.052;2023-06-24T04:47:49;7.20;;;3.90;;
6523;SDS011;3295;38.928;-77.052;2023-06-24T04:50:16;7.23;;;3.83;;
6523;SDS011;3295;38.928;-77.052;2023-06-24T04:52:43;7.80;;;3.93;;
6523;SDS011;3295;38.928;-77.052;2023-06-24T04:55:10;8.03;;;3.90;;
6523;SDS011;3295;38.928;-77.052;2023-06-24T04:57:38;8.23;;;3.47;;
6523;SDS011;3295;38.928;-77.052;2023-06-24T05:00:08;8.40;;;3.87;;
6523;SDS011;3295;38.928;-77.052;2023-06-24T05:02:35;7.10;;;3.80;;
6523;SDS011;3295;38.928;-77.052;2023-06-24T05:05:03;5.97;;;3.50;;
6523;SDS011;3295;38.928;-77.052;2023-06-24T05:07:30;5.57;;;3.13;;
6523;SDS011;3295;38.928;-77.052;2023-06-24T05:09:57;5.13;;;3.00;;
6523;SDS011;3295;38.928;-77.052;2023-06-24T05:12:25;5.87;;;3.30;;
6523;SDS011;3295;38.928;-77.052;2023-06-24T05:14:52;6.87;;;3.60;;
6523;SDS011;3295;38.928;-77.052;2023-06-24T05:17:21;5.97;;;3.23;;
6523;SDS011;3295;38.928;-77.052;2023-06-24T05:19:48;8.10;;;3.23;;
6523;SDS011;3295;38.928;-77.052;2023-06-24T05:22:16;5.57;;;3.33;;
6523;SDS011;3295;38.928;-77.052;2023-06-24T05:24:43;9.27;;;3.53;;
6523;SDS011;3295;38.928;-77.052;2023-06-24T05:27:11;6.87;;;3.80;;
6523;SDS011;3295;38.928;-77.052;2023-06-24T05:29:38;7.47;;;3.87;;
6523;SDS011;3295;38.928;-77.052;2023-06-24T05:32:05;6.40;;;3.60;;
6523;SDS011;3295;38.928;-77.052;2023-06-24T05:34:34;7.70;;;4.07;;
6523;SDS011;3295;38.928;-77.052;2023-06-24T05:37:01;7.90;;;4.20;;
6523;SDS011;3295;38.928;-77.052;2023-06-24T05:39:29;6.27;;;3.63;;
6523;SDS011;3295;38.928;-77.052;2023-06-24T05:41:56;7.47;;;3.70;;
6523;SDS011;3295;38.928;-77.052;2023-06-24T05:44:24;7.77;;;3.93;;
6523;SDS011;3295;38.928;-77.052;2023-06-24T05:46:51;6.20;;;3.50;;
6523;SDS011;3295;38.928;-77.052;2023-06-24T05:49:18;9.83;;;4.60;;
6523;SDS011;3295;38.928;-77.052;2023-06-24T05:51:47;10.53;;;4.23;;
6523;SDS011;3295;38.928;-77.052;2023-06-24T05:54:14;7.90;;;3.50;;
6523;SDS011;3295;38.928;-77.052;2023-06-24T05:56:41;7.33;;;3.70;;
6523;SDS011;3295;38.928;-77.052;2023-06-24T05:59:10;7.40;;;3.77;;
6523;SDS011;3295;38.928;-77.052;2023-06-24T06:01:37;7.93;;;3.67;;
6523;SDS011;3295;38.928;-77.052;2023-06-24T06:04:04;10.53;;;4.03;;
6523;SDS011;3295;38.928;-77.052;2023-06-24T06:06:32;8.97;;;4.30;;
6523;SDS011;3295;38.928;-77.052;2023-06-24T06:09:00;8.50;;;4.60;;
6523;SDS011;3295;38.928;-77.052;2023-06-24T06:11:27;10.07;;;4.87;;
6523;SDS011;3295;38.928;-77.052;2023-06-24T06:13:56;8.80;;;4.33;;
6523;SDS011;3295;38.928;-77.052;2023-06-24T06:16:23;8.80;;;4.37;;
6523;SDS011;3295;38.928;-77.052;2023-06-24T06:18:50;7.27;;;3.87;;
6523;SDS011;3295;38.928;-77.052;2023-06-24T06:21:18;9.40;;;4.43;;
6523;SDS011;3295;38.928;-77.052;2023-06-24T06:23:45;7.37;;;4.10;;
6523;SDS011;3295;38.928;-77.052;2023-06-24T06:26:14;9.17;;;4.43;;
6523;SDS011;3295;38.928;-77.052;2023-06-24T06:28:41;9.23;;;4.13;;
6523;SDS011;3295;38.928;-77.052;2023-06-24T06:31:08;11.07;;;4.53;;
6523;SDS011;3295;38.928;-77.052;2023-06-24T06:33:35;7.97;;;4.20;;
6523;SDS011;3295;38.928;-77.052;2023-06-24T06:36:03;8.60;;;4.43;;
6523;SDS011;3295;38.928;-77.052;2023-06-24T06:38:31;9.90;;;4.50;;
6523;SDS011;3295;38.928;-77.052;2023-06-24T06:40:59;10.03;;;4.27;;
6523;SDS011;3295;38.928;-77.052;2023-06-24T06:43:27;9.00;;;4.30;;
6523;SDS011;3295;38.928;-77.052;2023-06-24T06:45:55;9.73;;;4.67;;
6523;SDS011;3295;38.928;-77.052;2023-06-24T06:48:22;9.40;;;4.83;;
6523;SDS011;3295;38.928;-77.052;2023-06-24T06:50:49;10.00;;;4.70;;
6523;SDS011;3295;38.928;-77.052;2023-06-24T06:53:18;7.83;;;4.30;;
6523;SDS011;3295;38.928;-77.052;2023-06-24T06:55:45;8.70;;;4.50;;
6523;SDS011;3295;38.928;-77.052;2023-06-24T06:58:12;9.57;;;4.30;;
6523;SDS011;3295;38.928;-77.052;2023-06-24T07:00:41;8.13;;;4.60;;
6523;SDS011;3295;38.928;-77.052;2023-06-24T07:03:08;9.97;;;4.50;;
6523;SDS011;3295;38.928;-77.052;2023-06-24T07:05:35;8.57;;;4.20;;
6523;SDS011;3295;38.928;-77.052;2023-06-24T07:08:05;9.97;;;4.70;;
6523;SDS011;3295;38.928;-77.052;2023-06-24T07:10:32;8.23;;;4.47;;
6523;SDS011;3295;38.928;-77.052;2023-06-24T07:13:00;13.07;;;5.50;;
6523;SDS011;3295;38.928;-77.052;2023-06-24T07:15:27;9.77;;;4.60;;
6523;SDS011;3295;38.928;-77.052;2023-06-24T07:17:56;6.43;;;3.87;;
6523;SDS011;3295;38.928;-77.052;2023-06-24T07:20:24;12.43;;;5.10;;
6523;SDS011;3295;38.928;-77.052;2023-06-24T07:22:51;9.67;;;4.90;;
6523;SDS011;3295;38.928;-77.052;2023-06-24T07:25:18;7.80;;;4.23;;
6523;SDS011;3295;38.928;-77.052;2023-06-24T07:27:46;7.53;;;4.07;;
6523;SDS011;3295;38.928;-77.052;2023-06-24T07:30:13;8.00;;;4.60;;
6523;SDS011;3295;38.928;-77.052;2023-06-24T07:32:40;7.57;;;4.00;;
6523;SDS011;3295;38.928;-77.052;2023-06-24T07:35:09;8.23;;;4.70;;
6523;SDS011;3295;38.928;-77.052;2023-06-24T07:37:37;8.63;;;4.57;;
6523;SDS011;3295;38.928;-77.052;2023-06-24T07:40:04;9.47;;;4.37;;
6523;SDS011;3295;38.928;-77.052;2023-06-24T07:42:34;10.10;;;5.27;;
6523;SDS011;3295;38.928;-77.052;2023-06-24T07:45:02;9.43;;;4.47;;
6523;SDS011;3295;38.928;-77.052;2023-06-24T07:47:29;9.67;;;4.47;;
6523;SDS011;3295;38.928;-77.052;2023-06-24T07:49:57;9.30;;;4.53;;
6523;SDS011;3295;38.928;-77.052;2023-06-24T07:52:26;8.70;;;4.00;;
6523;SDS011;3295;38.928;-77.052;2023-06-24T07:54:53;8.00;;;4.37;;
6523;SDS011;3295;38.928;-77.052;2023-06-24T07:57:20;11.27;;;4.33;;
6523;SDS011;3295;38.928;-77.052;2023-06-24T07:59:47;8.27;;;4.50;;
6523;SDS011;3295;38.928;-77.052;2023-06-24T08:02:15;7.27;;;4.03;;
6523;SDS011;3295;38.928;-77.052;2023-06-24T08:04:42;14.10;;;4.83;;
6523;SDS011;3295;38.928;-77.052;2023-06-24T08:07:09;10.63;;;4.97;;
6523;SDS011;3295;38.928;-77.052;2023-06-24T08:09:38;6.83;;;4.20;;
6523;SDS011;3295;38.928;-77.052;2023-06-24T08:12:05;7.83;;;4.40;;
6523;SDS011;3295;38.928;-77.052;2023-06-24T08:14:32;9.37;;;4.97;;
6523;SDS011;3295;38.928;-77.052;2023-06-24T08:17:00;7.67;;;4.27;;
6523;SDS011;3295;38.928;-77.052;2023-06-24T08:19:27;8.23;;;4.23;;
6523;SDS011;3295;38.928;-77.052;2023-06-24T08:21:55;8.03;;;4.00;;
6523;SDS011;3295;38.928;-77.052;2023-06-24T08:24:22;8.53;;;4.47;;
6523;SDS011;3295;38.928;-77.052;2023-06-24T08:26:51;7.33;;;4.10;;
6523;SDS011;3295;38.928;-77.052;2023-06-24T08:29:18;8.47;;;4.13;;
6523;SDS011;3295;38.928;-77.052;2023-06-24T08:31:45;9.20;;;4.70;;
6523;SDS011;3295;38.928;-77.052;2023-06-24T08:34:12;9.57;;;4.60;;
6523;SDS011;3295;38.928;-77.052;2023-06-24T08:36:40;7.60;;;4.10;;
6523;SDS011;3295;38.928;-77.052;2023-06-24T08:39:07;8.07;;;4.10;;
6523;SDS011;3295;38.928;-77.052;2023-06-24T08:41:34;9.90;;;4.43;;
6523;SDS011;3295;38.928;-77.052;2023-06-24T08:44:03;10.93;;;4.57;;
6523;SDS011;3295;38.928;-77.052;2023-06-24T08:46:30;10.97;;;4.67;;
6523;SDS011;3295;38.928;-77.052;2023-06-24T08:48:59;7.67;;;4.67;;
6523;SDS011;3295;38.928;-77.052;2023-06-24T08:51:29;9.83;;;4.20;;
6523;SDS011;3295;38.928;-77.052;2023-06-24T08:53:58;10.73;;;4.60;;
6523;SDS011;3295;38.928;-77.052;2023-06-24T08:56:26;8.33;;;4.70;;
6523;SDS011;3295;38.928;-77.052;2023-06-24T08:58:53;7.77;;;4.13;;
6523;SDS011;3295;38.928;-77.052;2023-06-24T09:01:22;10.87;;;5.23;;
6523;SDS011;3295;38.928;-77.052;2023-06-24T09:03:49;12.00;;;4.77;;
6523;SDS011;3295;38.928;-77.052;2023-06-24T09:06:17;12.23;;;4.60;;
6523;SDS011;3295;38.928;-77.052;2023-06-24T09:08:51;9.03;;;4.47;;
6523;SDS011;3295;38.928;-77.052;2023-06-24T09:11:21;8.50;;;4.50;;
6523;SDS011;3295;38.928;-77.052;2023-06-24T09:13:50;11.50;;;5.07;;
6523;SDS011;3295;38.928;-77.052;2023-06-24T09:16:22;10.97;;;4.47;;
6523;SDS011;3295;38.928;-77.052;2023-06-24T09:18:49;11.27;;;4.77;;
6523;SDS011;3295;38.928;-77.052;2023-06-24T09:21:23;9.90;;;4.83;;
6523;SDS011;3295;38.928;-77.052;2023-06-24T09:23:54;9.47;;;4.73;;
6523;SDS011;3295;38.928;-77.052;2023-06-24T09:26:22;13.03;;;4.90;;
6523;SDS011;3295;38.928;-77.052;2023-06-24T09:28:50;9.80;;;4.77;;
6523;SDS011;3295;38.928;-77.052;2023-06-24T09:31:17;13.40;;;4.93;;
6523;SDS011;3295;38.928;-77.052;2023-06-24T09:33:46;10.33;;;4.77;;
6523;SDS011;3295;38.928;-77.052;2023-06-24T09:36:14;9.47;;;4.50;;
6523;SDS011;3295;38.928;-77.052;2023-06-24T09:38:41;9.83;;;5.10;;
6523;SDS011;3295;38.928;-77.052;2023-06-24T09:41:09;9.63;;;4.80;;
6523;SDS011;3295;38.928;-77.052;2023-06-24T09:43:37;8.40;;;4.77;;
6523;SDS011;3295;38.928;-77.052;2023-06-24T09:46:05;9.47;;;5.17;;
6523;SDS011;3295;38.928;-77.052;2023-06-24T09:48:32;9.40;;;4.70;;
6523;SDS011;3295;38.928;-77.052;2023-06-24T09:51:02;10.33;;;4.80;;
6523;SDS011;3295;38.928;-77.052;2023-06-24T09:53:30;10.10;;;4.70;;
6523;SDS011;3295;38.928;-77.052;2023-06-24T09:55:57;8.97;;;4.53;;
6523;SDS011;3295;38.928;-77.052;2023-06-24T09:58:26;10.30;;;5.07;;
6523;SDS011;3295;38.928;-77.052;2023-06-24T10:00:53;11.17;;;4.80;;
6523;SDS011;3295;38.928;-77.052;2023-06-24T10:03:21;9.77;;;4.57;;
6523;SDS011;3295;38.928;-77.052;2023-06-24T10:05:49;11.27;;;5.20;;
6523;SDS011;3295;38.928;-77.052;2023-06-24T10:08:18;8.37;;;4.40;;
6523;SDS011;3295;38.928;-77.052;2023-06-24T10:10:45;11.20;;;4.97;;
6523;SDS011;3295;38.928;-77.052;2023-06-24T10:13:12;9.83;;;5.07;;
6523;SDS011;3295;38.928;-77.052;2023-06-24T10:15:40;13.53;;;4.93;;
6523;SDS011;3295;38.928;-77.052;2023-06-24T10:20:49;10.80;;;4.73;;
6523;SDS011;3295;38.928;-77.052;2023-06-24T10:23:18;11.60;;;5.30;;
6523;SDS011;3295;38.928;-77.052;2023-06-24T10:25:46;10.33;;;4.77;;
6523;SDS011;3295;38.928;-77.052;2023-06-24T10:28:14;10.43;;;4.80;;
6523;SDS011;3295;38.928;-77.052;2023-06-24T10:30:44;10.73;;;5.13;;
6523;SDS011;3295;38.928;-77.052;2023-06-24T10:33:20;10.90;;;5.40;;
6523;SDS011;3295;38.928;-77.052;2023-06-24T10:35:48;9.73;;;4.60;;
6523;SDS011;3295;38.928;-77.052;2023-06-24T10:38:17;11.70;;;5.53;;
6523;SDS011;3295;38.928;-77.052;2023-06-24T10:40:45;8.50;;;4.70;;
6523;SDS011;3295;38.928;-77.052;2023-06-24T10:43:25;12.80;;;5.77;;
6523;SDS011;3295;38.928;-77.052;2023-06-24T10:45:53;11.30;;;4.90;;
6523;SDS011;3295;38.928;-77.052;2023-06-24T10:48:21;10.27;;;5.43;;
6523;SDS011;3295;38.928;-77.052;2023-06-24T10:50:48;11.33;;;5.80;;
6523;SDS011;3295;38.928;-77.052;2023-06-24T10:53:17;11.83;;;5.60;;
6523;SDS011;3295;38.928;-77.052;2023-06-24T10:55:45;16.00;;;5.00;;
6523;SDS011;3295;38.928;-77.052;2023-06-24T10:58:13;11.37;;;5.67;;
6523;SDS011;3295;38.928;-77.052;2023-06-24T11:00:41;11.33;;;5.40;;
6523;SDS011;3295;38.928;-77.052;2023-06-24T11:03:09;14.03;;;6.07;;
6523;SDS011;3295;38.928;-77.052;2023-06-24T11:05:39;12.73;;;5.20;;
6523;SDS011;3295;38.928;-77.052;2023-06-24T11:08:07;13.70;;;5.53;;
6523;SDS011;3295;38.928;-77.052;2023-06-24T11:10:43;12.60;;;5.73;;
6523;SDS011;3295;38.928;-77.052;2023-06-24T11:13:11;11.20;;;5.43;;
6523;SDS011;3295;38.928;-77.052;2023-06-24T11:15:38;9.73;;;5.20;;
6523;SDS011;3295;38.928;-77.052;2023-06-24T11:18:08;11.80;;;5.23;;
6523;SDS011;3295;38.928;-77.052;2023-06-24T11:20:36;10.47;;;5.03;;
6523;SDS011;3295;38.928;-77.052;2023-06-24T11:23:05;13.90;;;5.30;;
6523;SDS011;3295;38.928;-77.052;2023-06-24T11:25:38;10.70;;;4.83;;
6523;SDS011;3295;38.928;-77.052;2023-06-24T11:28:06;9.27;;;4.53;;
6523;SDS011;3295;38.928;-77.052;2023-06-24T11:30:38;12.23;;;4.80;;
6523;SDS011;3295;38.928;-77.052;2023-06-24T11:33:05;11.03;;;5.53;;
6523;SDS011;3295;38.928;-77.052;2023-06-24T11:35:33;8.77;;;4.53;;
6523;SDS011;3295;38.928;-77.052;2023-06-24T11:38:02;11.13;;;4.90;;
6523;SDS011;3295;38.928;-77.052;2023-06-24T11:40:30;10.77;;;4.60;;
6523;SDS011;3295;38.928;-77.052;2023-06-24T11:42:57;9.93;;;4.27;;
6523;SDS011;3295;38.928;-77.052;2023-06-24T11:45:26;9.03;;;4.50;;
6523;SDS011;3295;38.928;-77.052;2023-06-24T11:47:53;8.20;;;3.80;;
6523;SDS011;3295;38.928;-77.052;2023-06-24T11:50:30;9.37;;;4.57;;
6523;SDS011;3295;38.928;-77.052;2023-06-24T11:52:57;8.33;;;4.70;;
6523;SDS011;3295;38.928;-77.052;2023-06-24T11:55:25;7.23;;;4.00;;
6523;SDS011;3295;38.928;-77.052;2023-06-24T11:57:53;8.23;;;4.37;;
6523;SDS011;3295;38.928;-77.052;2023-06-24T12:00:20;6.63;;;3.97;;
6523;SDS011;3295;38.928;-77.052;2023-06-24T12:02:51;6.73;;;4.13;;
6523;SDS011;3295;38.928;-77.052;2023-06-24T12:05:28;7.83;;;4.10;;
6523;SDS011;3295;38.928;-77.052;2023-06-24T12:07:56;5.90;;;3.67;;
6523;SDS011;3295;38.928;-77.052;2023-06-24T12:10:24;8.33;;;4.30;;
6523;SDS011;3295;38.928;-77.052;2023-06-24T12:12:51;7.07;;;3.70;;
6523;SDS011;3295;38.928;-77.052;2023-06-24T12:15:18;5.80;;;3.87;;
6523;SDS011;3295;38.928;-77.052;2023-06-24T12:17:46;8.73;;;4.17;;
6523;SDS011;3295;38.928;-77.052;2023-06-24T12:20:15;6.93;;;3.83;;
6523;SDS011;3295;38.928;-77.052;2023-06-24T12:22:44;7.70;;;4.20;;
6523;SDS011;3295;38.928;-77.052;2023-06-24T12:25:11;8.87;;;4.30;;
6523;SDS011;3295;38.928;-77.052;2023-06-24T12:27:39;7.67;;;3.70;;
6523;SDS011;3295;38.928;-77.052;2023-06-24T12:30:07;6.93;;;3.87;;
6523;SDS011;3295;38.928;-77.052;2023-06-24T12:32:34;6.53;;;3.80;;
6523;SDS011;3295;38.928;-77.052;2023-06-24T12:35:02;6.53;;;3.80;;
6523;SDS011;3295;38.928;-77.052;2023-06-24T12:37:31;6.80;;;3.37;;
6523;SDS011;3295;38.928;-77.052;2023-06-24T12:39:59;5.67;;;3.60;;
6523;SDS011;3295;38.928;-77.052;2023-06-24T12:42:26;6.87;;;3.83;;
6523;SDS011;3295;38.928;-77.052;2023-06-24T12:44:53;9.23;;;3.80;;
6523;SDS011;3295;38.928;-77.052;2023-06-24T12:47:21;7.30;;;3.60;;
6523;SDS011;3295;38.928;-77.052;2023-06-24T12:49:48;6.00;;;3.40;;
6523;SDS011;3295;38.928;-77.052;2023-06-24T12:52:15;7.60;;;3.87;;
6523;SDS011;3295;38.928;-77.052;2023-06-24T12:54:44;5.83;;;3.10;;
6523;SDS011;3295;38.928;-77.052;2023-06-24T12:57:12;5.83;;;3.27;;
6523;SDS011;3295;38.928;-77.052;2023-06-24T12:59:39;5.47;;;3.37;;
6523;SDS011;3295;38.928;-77.052;2023-06-24T13:02:06;6.20;;;3.63;;
6523;SDS011;3295;38.928;-77.052;2023-06-24T13:04:33;6.07;;;3.67;;
6523;SDS011;3295;38.928;-77.052;2023-06-24T13:07:01;5.20;;;2.90;;
6523;SDS011;3295;38.928;-77.052;2023-06-24T13:09:28;5.23;;;3.10;;
6523;SDS011;3295;38.928;-77.052;2023-06-24T13:11:57;6.80;;;3.10;;
6523;SDS011;3295;38.928;-77.052;2023-06-24T13:14:24;9.13;;;3.40;;
6523;SDS011;3295;38.928;-77.052;2023-06-24T13:16:53;4.23;;;2.90;;
6523;SDS011;3295;38.928;-77.052;2023-06-24T13:19:20;4.23;;;2.80;;
6523;SDS011;3295;38.928;-77.052;2023-06-24T13:21:48;5.83;;;2.90;;
6523;SDS011;3295;38.928;-77.052;2023-06-24T13:24:15;3.90;;;2.80;;
6523;SDS011;3295;38.928;-77.052;2023-06-24T13:26:42;4.60;;;2.77;;
6523;SDS011;3295;38.928;-77.052;2023-06-24T13:29:11;4.73;;;2.80;;
6523;SDS011;3295;38.928;-77.052;2023-06-24T13:31:39;3.57;;;2.50;;
6523;SDS011;3295;38.928;-77.052;2023-06-24T13:34:06;4.67;;;2.90;;
6523;SDS011;3295;38.928;-77.052;2023-06-24T13:36:34;5.07;;;2.73;;
6523;SDS011;3295;38.928;-77.052;2023-06-24T13:39:02;3.70;;;2.53;;
6523;SDS011;3295;38.928;-77.052;2023-06-24T13:41:29;4.40;;;2.87;;
6523;SDS011;3295;38.928;-77.052;2023-06-24T13:43:58;3.40;;;2.37;;
6523;SDS011;3295;38.928;-77.052;2023-06-24T13:46:27;3.47;;;2.20;;
6523;SDS011;3295;38.928;-77.052;2023-06-24T13:48:54;2.70;;;2.00;;
6523;SDS011;3295;38.928;-77.052;2023-06-24T13:51:21;3.70;;;2.20;;
6523;SDS011;3295;38.928;-77.052;2023-06-24T13:53:49;3.13;;;2.20;;
6523;SDS011;3295;38.928;-77.052;2023-06-24T13:56:16;3.90;;;2.43;;
6523;SDS011;3295;38.928;-77.052;2023-06-24T13:58:44;4.33;;;2.87;;
6523;SDS011;3295;38.928;-77.052;2023-06-24T14:01:11;4.13;;;2.60;;
6523;SDS011;3295;38.928;-77.052;2023-06-24T14:03:40;4.17;;;2.50;;
6523;SDS011;3295;38.928;-77.052;2023-06-24T14:06:07;3.50;;;2.37;;
6523;SDS011;3295;38.928;-77.052;2023-06-24T14:08:35;2.90;;;2.00;;
6523;SDS011;3295;38.928;-77.052;2023-06-24T14:11:02;3.57;;;2.33;;
6523;SDS011;3295;38.928;-77.052;2023-06-24T14:13:29;3.43;;;2.40;;
6523;SDS011;3295;38.928;-77.052;2023-06-24T14:15:57;3.70;;;2.20;;
6523;SDS011;3295;38.928;-77.052;2023-06-24T14:18:24;3.23;;;2.23;;
6523;SDS011;3295;38.928;-77.052;2023-06-24T14:20:53;3.00;;;2.20;;
6523;SDS011;3295;38.928;-77.052;2023-06-24T14:23:21;3.57;;;2.10;;
6523;SDS011;3295;38.928;-77.052;2023-06-24T14:25:48;5.33;;;2.30;;
6523;SDS011;3295;38.928;-77.052;2023-06-24T14:28:15;3.80;;;2.40;;
6523;SDS011;3295;38.928;-77.052;2023-06-24T14:30:43;4.03;;;2.20;;
6523;SDS011;3295;38.928;-77.052;2023-06-24T14:33:11;3.47;;;2.30;;
6523;SDS011;3295;38.928;-77.052;2023-06-24T14:35:38;4.43;;;2.40;;
6523;SDS011;3295;38.928;-77.052;2023-06-24T14:38:07;3.90;;;2.40;;
6523;SDS011;3295;38.928;-77.052;2023-06-24T14:40:35;3.27;;;2.30;;
6523;SDS011;3295;38.928;-77.052;2023-06-24T14:43:02;3.77;;;2.47;;
6523;SDS011;3295;38.928;-77.052;2023-06-24T14:45:29;4.10;;;2.10;;
6523;SDS011;3295;38.928;-77.052;2023-06-24T14:47:57;3.57;;;2.30;;
6523;SDS011;3295;38.928;-77.052;2023-06-24T14:50:24;3.23;;;2.27;;
6523;SDS011;3295;38.928;-77.052;2023-06-24T14:52:51;3.13;;;2.30;;
6523;SDS011;3295;38.928;-77.052;2023-06-24T14:55:20;3.93;;;2.63;;